FlightSpace

METAR
EPBY 200130Z 29015KT 9999 OVC005 02/01 Q1002
TAF
TAF EPBY 192330Z 2000/2024 27010KT 9999 BKN012 PROB40 TEMPO 2000/2006 30015G28KT 2000 SHRASN BKN003 BKN010CB BECMG 2006/2008 BKN025 PROB40 TEMPO 2009/2018 -SHRA BKN015TCU
TAF EPBY 191730Z 1918/2018 24012KT 9999 SCT008 BKN012 TEMPO 1918/2006 25015G26KT 3000 SHRASN BKN005 BKN010CB BECMG 2002/2004 33015KT BECMG 2006/2009 BKN020 PROB40 TEMPO 2006/2018 33015G26KT -SHRA SCT020CB
TAF EPBY 191130Z 1912/2012 23014KT 9999 SCT008 BKN012 TEMPO 1912/2006 25017G30KT 3000 SHRA BKN005 BKN010CB BECMG 2002/2004 33015KT BECMG 2006/2009 BKN020 PROB40 TEMPO 2006/2012 33015G26KT
TAF EPBY 190530Z 1906/2006 24012KT 9999 SCT010 BKN014 PROB40 TEMPO 1906/2006 25017G30KT 3000 SHRASN BKN005 BKN010CB

Bydgoszcz Ignacy Jan Paderewski Airport ( EPBY , BZG )


Location
  • Country: PL
  • Region: PL-KP
  • Municipality: Bydgoszcz
  • ARP: 53.0968 17.9777, elev. 235 ft
  • ICAO Address: EPBY
  • IATA Code: BZG
  • GPS Code: EPBY
  • Ident: EPBY
  • Time Zone: Europe/Warsaw
  • Actual Local Time: 02:53:48
Radio communication
TWR 131.000 MHz BYDGOSZCZ TWR
INFO 128.500 MHz INFO
Runways
Direction Width Length Surface
26 60 2500 CON
08 60 2500 CON
Comments



Advertisement